In Rescue
 
Open Full Screen Window  High Contrast Mode
June 22, 2024 8:15 PM CDT
Weather Information
Wind Direction
  ---
Wind Speed
  00 kt (0 mph)
Wind Gust
  00 kt (0 mph)
Altimeter
29.84 in
Visibility
10 SM
Temperature
21° C
70° F
Dewpoint
17° C
63° F
Humidity
78%
Sky Condition
Overcast @ 5,000 ft
VFR

METAR K3N8 230115Z AUTO 00000KT 10SM OVC050 21/17 A2984 RMK AO2 T02070169

FAA Disclaimer: The data displayed is for advisory purposes only and is not to be used for flight planning or operations.